sensor_id;sensor_type;location;lat;lon;timestamp;pressure;altitude;pressure_sealevel;temperature
82400;BMP280;72039;48.812;8.198;2023-08-12T00:00:58;100550.75;;;24.72
82400;BMP280;72039;48.812;8.198;2023-08-12T00:03:23;100554.28;;;24.73
82400;BMP280;72039;48.812;8.198;2023-08-12T00:05:49;100549.31;;;24.73
82400;BMP280;72039;48.812;8.198;2023-08-12T00:08:14;100546.50;;;24.73
82400;BMP280;72039;48.812;8.198;2023-08-12T00:10:41;100554.97;;;24.75
82400;BMP280;72039;48.812;8.198;2023-08-12T00:13:09;100549.28;;;24.78
82400;BMP280;72039;48.812;8.198;2023-08-12T00:15:34;100554.94;;;24.82
82400;BMP280;72039;48.812;8.198;2023-08-12T00:18:00;100554.19;;;24.83
82400;BMP280;72039;48.812;8.198;2023-08-12T00:20:31;100549.94;;;24.84
82400;BMP280;72039;48.812;8.198;2023-08-12T00:22:59;100549.22;;;24.84
82400;BMP280;72039;48.812;8.198;2023-08-12T00:25:24;100550.69;;;24.81
82400;BMP280;72039;48.812;8.198;2023-08-12T00:27:52;100546.47;;;24.75
82400;BMP280;72039;48.812;8.198;2023-08-12T00:30:17;100547.91;;;24.74
82400;BMP280;72039;48.812;8.198;2023-08-12T00:32:43;100549.38;;;24.67
82400;BMP280;72039;48.812;8.198;2023-08-12T00:35:11;100542.34;;;24.60
82400;BMP280;72039;48.812;8.198;2023-08-12T00:40:02;100546.00;;;24.48
82400;BMP280;72039;48.812;8.198;2023-08-12T00:42:29;100542.50;;;24.46
82400;BMP280;72039;48.812;8.198;2023-08-12T00:45:00;100543.94;;;24.43
82400;BMP280;72039;48.812;8.198;2023-08-12T00:47:30;100544.00;;;24.35
82400;BMP280;72039;48.812;8.198;2023-08-12T00:49:58;100552.59;;;24.29
82400;BMP280;72039;48.812;8.198;2023-08-12T00:52:24;100552.59;;;24.25
82400;BMP280;72039;48.812;8.198;2023-08-12T00:55:03;100556.84;;;24.24
82400;BMP280;72039;48.812;8.198;2023-08-12T00:57:29;100558.28;;;24.23
82400;BMP280;72039;48.812;8.198;2023-08-12T00:59:56;100562.50;;;24.24
82400;BMP280;72039;48.812;8.198;2023-08-12T01:02:23;100556.84;;;24.24
82400;BMP280;72039;48.812;8.198;2023-08-12T01:04:49;100562.56;;;24.19
82400;BMP280;72039;48.812;8.198;2023-08-12T01:07:14;100566.84;;;24.14
82400;BMP280;72039;48.812;8.198;2023-08-12T01:09:40;100560.50;;;24.10
82400;BMP280;72039;48.812;8.198;2023-08-12T01:17:33;100558.28;;;24.25
82400;BMP280;72039;48.812;8.198;2023-08-12T01:20:08;100556.81;;;24.28
82400;BMP280;72039;48.812;8.198;2023-08-12T01:22:34;100553.97;;;24.30
82400;BMP280;72039;48.812;8.198;2023-08-12T01:25:05;100558.19;;;24.33
82400;BMP280;72039;48.812;8.198;2023-08-12T01:27:31;100552.50;;;24.33
82400;BMP280;72039;48.812;8.198;2023-08-12T01:29:56;100558.88;;;24.35
82400;BMP280;72039;48.812;8.198;2023-08-12T01:35:08;100561.03;;;24.31
82400;BMP280;72039;48.812;8.198;2023-08-12T01:37:35;100556.81;;;24.28
82400;BMP280;72039;48.812;8.198;2023-08-12T01:40:04;100562.50;;;24.28
82400;BMP280;72039;48.812;8.198;2023-08-12T01:42:32;100563.19;;;24.28
82400;BMP280;72039;48.812;8.198;2023-08-12T01:44:57;100567.47;;;24.27
82400;BMP280;72039;48.812;8.198;2023-08-12T01:47:23;100578.78;;;24.29
82400;BMP280;72039;48.812;8.198;2023-08-12T01:49:50;100570.28;;;24.29
82400;BMP280;72039;48.812;8.198;2023-08-12T01:52:15;100579.50;;;24.28
82400;BMP280;72039;48.812;8.198;2023-08-12T01:54:41;100572.47;;;24.25
82400;BMP280;72039;48.812;8.198;2023-08-12T01:57:06;100573.16;;;24.23
82400;BMP280;72039;48.812;8.198;2023-08-12T01:59:35;100581.66;;;24.25
82400;BMP280;72039;48.812;8.198;2023-08-12T02:02:00;100579.50;;;24.28
82400;BMP280;72039;48.812;8.198;2023-08-12T02:04:26;100578.78;;;24.31
82400;BMP280;72039;48.812;8.198;2023-08-12T02:06:52;100569.50;;;24.37
82400;BMP280;72039;48.812;8.198;2023-08-12T02:09:17;100563.81;;;24.41
82400;BMP280;72039;48.812;8.198;2023-08-12T02:11:48;100560.22;;;24.44
82400;BMP280;72039;48.812;8.198;2023-08-12T02:14:13;100560.22;;;24.46
82400;BMP280;72039;48.812;8.198;2023-08-12T02:16:39;100567.31;;;24.50
82400;BMP280;72039;48.812;8.198;2023-08-12T02:19:06;100565.13;;;24.52
82400;BMP280;72039;48.812;8.198;2023-08-12T02:21:31;100575.03;;;24.55
82400;BMP280;72039;48.812;8.198;2023-08-12T02:23:57;100569.34;;;24.57
82400;BMP280;72039;48.812;8.198;2023-08-12T02:26:22;100575.69;;;24.58
82400;BMP280;72039;48.812;8.198;2023-08-12T02:28:50;100570.72;;;24.58
82400;BMP280;72039;48.812;8.198;2023-08-12T02:31:16;100572.19;;;24.55
82400;BMP280;72039;48.812;8.198;2023-08-12T02:33:42;100565.13;;;24.52
82400;BMP280;72039;48.812;8.198;2023-08-12T02:36:10;100558.72;;;24.54
82400;BMP280;72039;48.812;8.198;2023-08-12T02:38:35;100554.47;;;24.57
82400;BMP280;72039;48.812;8.198;2023-08-12T02:41:01;100553.72;;;24.58
82400;BMP280;72039;48.812;8.198;2023-08-12T02:43:26;100550.88;;;24.60
82400;BMP280;72039;48.812;8.198;2023-08-12T02:45:51;100550.13;;;24.64
82400;BMP280;72039;48.812;8.198;2023-08-12T02:48:17;100541.56;;;24.70
82400;BMP280;72039;48.812;8.198;2023-08-12T02:50:42;100550.03;;;24.74
82400;BMP280;72039;48.812;8.198;2023-08-12T02:53:10;100550.69;;;24.77
82400;BMP280;72039;48.812;8.198;2023-08-12T02:55:35;100549.31;;;24.75
82400;BMP280;72039;48.812;8.198;2023-08-12T02:58:02;100550.75;;;24.74
82400;BMP280;72039;48.812;8.198;2023-08-12T03:00:28;100546.47;;;24.78
82400;BMP280;72039;48.812;8.198;2023-08-12T03:02:54;100528.66;;;24.81
82400;BMP280;72039;48.812;8.198;2023-08-12T03:05:20;100537.88;;;24.84
82400;BMP280;72039;48.812;8.198;2023-08-12T03:07:47;100523.66;;;24.86
82400;BMP280;72039;48.812;8.198;2023-08-12T03:10:13;100511.56;;;24.87
82400;BMP280;72039;48.812;8.198;2023-08-12T03:12:38;100506.56;;;24.90
82400;BMP280;72039;48.812;8.198;2023-08-12T03:15:06;100503.75;;;24.88
82400;BMP280;72039;48.812;8.198;2023-08-12T03:17:31;100500.94;;;24.86
82400;BMP280;72039;48.812;8.198;2023-08-12T03:19:57;100513.06;;;24.82
82400;BMP280;72039;48.812;8.198;2023-08-12T03:22:25;100510.97;;;24.79
82400;BMP280;72039;48.812;8.198;2023-08-12T03:24:50;100519.47;;;24.77
82400;BMP280;72039;48.812;8.198;2023-08-12T03:27:18;100533.69;;;24.77
82400;BMP280;72039;48.812;8.198;2023-08-12T03:29:43;100532.25;;;24.78
82400;BMP280;72039;48.812;8.198;2023-08-12T03:32:08;100525.84;;;24.79
82400;BMP280;72039;48.812;8.198;2023-08-12T03:34:34;100526.56;;;24.80
82400;BMP280;72039;48.812;8.198;2023-08-12T03:37:01;100527.28;;;24.76
82400;BMP280;72039;48.812;8.198;2023-08-12T03:39:29;100520.25;;;24.75
82400;BMP280;72039;48.812;8.198;2023-08-12T03:41:59;100507.47;;;24.74
82400;BMP280;72039;48.812;8.198;2023-08-12T03:44:24;100479.06;;;24.74
82400;BMP280;72039;48.812;8.198;2023-08-12T03:46:52;100505.38;;;24.68
82400;BMP280;72039;48.812;8.198;2023-08-12T03:49:20;100513.25;;;24.62
82400;BMP280;72039;48.812;8.198;2023-08-12T03:51:45;100499.81;;;24.58
82400;BMP280;72039;48.812;8.198;2023-08-12T03:54:10;100487.81;;;24.54
82400;BMP280;72039;48.812;8.198;2023-08-12T03:56:35;100487.84;;;24.52
82400;BMP280;72039;48.812;8.198;2023-08-12T03:59:01;100498.53;;;24.47
82400;BMP280;72039;48.812;8.198;2023-08-12T04:01:26;100510.59;;;24.43
82400;BMP280;72039;48.812;8.198;2023-08-12T04:03:52;100499.97;;;24.40
82400;BMP280;72039;48.812;8.198;2023-08-12T04:06:17;100495.03;;;24.42
82400;BMP280;72039;48.812;8.198;2023-08-12T04:08:43;100509.94;;;24.39
82400;BMP280;72039;48.812;8.198;2023-08-12T04:11:08;100512.81;;;24.31
82400;BMP280;72039;48.812;8.198;2023-08-12T04:13:36;100505.09;;;24.25
82400;BMP280;72039;48.812;8.198;2023-08-12T04:16:01;100501.56;;;24.23
82400;BMP280;72039;48.812;8.198;2023-08-12T04:18:31;100509.41;;;24.18
82400;BMP280;72039;48.812;8.198;2023-08-12T04:20:57;100497.38;;;24.17
82400;BMP280;72039;48.812;8.198;2023-08-12T04:23:22;100498.78;;;24.14
82400;BMP280;72039;48.812;8.198;2023-08-12T04:25:47;100515.84;;;24.10
82400;BMP280;72039;48.812;8.198;2023-08-12T04:28:14;100517.31;;;24.03
82400;BMP280;72039;48.812;8.198;2023-08-12T04:30:46;100513.09;;;24.00
82400;BMP280;72039;48.812;8.198;2023-08-12T04:33:13;100514.50;;;24.01
82400;BMP280;72039;48.812;8.198;2023-08-12T04:35:40;100510.25;;;24.00
82400;BMP280;72039;48.812;8.198;2023-08-12T04:38:08;100507.38;;;24.02
82400;BMP280;72039;48.812;8.198;2023-08-12T04:40:34;100477.59;;;24.05
82400;BMP280;72039;48.812;8.198;2023-08-12T04:42:59;100477.63;;;24.03
82400;BMP280;72039;48.812;8.198;2023-08-12T04:45:24;100488.97;;;24.03
82400;BMP280;72039;48.812;8.198;2023-08-12T04:47:50;100488.97;;;24.03
82400;BMP280;72039;48.812;8.198;2023-08-12T04:50:15;100479.75;;;24.03
82400;BMP280;72039;48.812;8.198;2023-08-12T04:52:41;100475.50;;;24.04
82400;BMP280;72039;48.812;8.198;2023-08-12T04:55:06;100478.34;;;24.04
82400;BMP280;72039;48.812;8.198;2023-08-12T04:57:32;100475.50;;;24.02
82400;BMP280;72039;48.812;8.198;2023-08-12T04:59:57;100476.22;;;24.02
82400;BMP280;72039;48.812;8.198;2023-08-12T05:02:25;100479.03;;;24.02
82400;BMP280;72039;48.812;8.198;2023-08-12T05:04:51;100485.38;;;24.05
82400;BMP280;72039;48.812;8.198;2023-08-12T05:07:18;100489.69;;;24.02
82400;BMP280;72039;48.812;8.198;2023-08-12T05:09:44;100481.94;;;23.96
82400;BMP280;72039;48.812;8.198;2023-08-12T05:12:10;100482.66;;;23.95
82400;BMP280;72039;48.812;8.198;2023-08-12T05:14:36;100488.34;;;23.92
82400;BMP280;72039;48.812;8.198;2023-08-12T05:17:02;100491.88;;;23.91
82400;BMP280;72039;48.812;8.198;2023-08-12T05:19:29;100486.22;;;23.87
82400;BMP280;72039;48.812;8.198;2023-08-12T05:21:57;100484.84;;;23.84
82400;BMP280;72039;48.812;8.198;2023-08-12T05:24:23;100479.88;;;23.84
82400;BMP280;72039;48.812;8.198;2023-08-12T05:26:48;100477.78;;;23.85
82400;BMP280;72039;48.812;8.198;2023-08-12T05:29:13;100481.31;;;23.85
82400;BMP280;72039;48.812;8.198;2023-08-12T05:31:39;100482.00;;;23.88
82400;BMP280;72039;48.812;8.198;2023-08-12T05:34:04;100476.28;;;23.90
82400;BMP280;72039;48.812;8.198;2023-08-12T05:36:30;100480.50;;;23.95
82400;BMP280;72039;48.812;8.198;2023-08-12T05:38:55;100473.41;;;24.00
82400;BMP280;72039;48.812;8.198;2023-08-12T05:41:22;100476.88;;;24.05
82400;BMP280;72039;48.812;8.198;2023-08-12T05:43:48;100482.53;;;24.09
82400;BMP280;72039;48.812;8.198;2023-08-12T05:46:13;100481.78;;;24.12
82400;BMP280;72039;48.812;8.198;2023-08-12T05:48:41;100486.03;;;24.13
82400;BMP280;72039;48.812;8.198;2023-08-12T05:51:12;100494.56;;;24.11
82400;BMP280;72039;48.812;8.198;2023-08-12T05:53:37;100493.13;;;24.12
82400;BMP280;72039;48.812;8.198;2023-08-12T05:56:05;100495.25;;;24.12
82400;BMP280;72039;48.812;8.198;2023-08-12T05:58:32;100505.91;;;24.13
82400;BMP280;72039;48.812;8.198;2023-08-12T06:00:57;100500.91;;;24.18
82400;BMP280;72039;48.812;8.198;2023-08-12T06:03:25;100505.09;;;24.25
82400;BMP280;72039;48.812;8.198;2023-08-12T06:05:52;100498.63;;;24.31
82400;BMP280;72039;48.812;8.198;2023-08-12T06:08:26;100506.41;;;24.38
82400;BMP280;72039;48.812;8.198;2023-08-12T06:10:52;100509.88;;;24.45
82400;BMP280;72039;48.812;8.198;2023-08-12T06:13:17;100502.72;;;24.52
82400;BMP280;72039;48.812;8.198;2023-08-12T06:15:45;100504.09;;;24.57
82400;BMP280;72039;48.812;8.198;2023-08-12T06:18:10;100501.13;;;24.69
82400;BMP280;72039;48.812;8.198;2023-08-12T06:20:35;100499.59;;;24.79
82400;BMP280;72039;48.812;8.198;2023-08-12T06:23:01;100495.28;;;24.86
82400;BMP280;72039;48.812;8.198;2023-08-12T06:25:26;100495.88;;;24.94
82400;BMP280;72039;48.812;8.198;2023-08-12T06:27:56;100498.00;;;24.96
82400;BMP280;72039;48.812;8.198;2023-08-12T06:30:23;100494.44;;;24.97
82400;BMP280;72039;48.812;8.198;2023-08-12T06:32:49;100489.41;;;25.02
82400;BMP280;72039;48.812;8.198;2023-08-12T06:35:14;100494.34;;;25.06
82400;BMP280;72039;48.812;8.198;2023-08-12T06:37:39;100489.25;;;25.14
82400;BMP280;72039;48.812;8.198;2023-08-12T06:40:06;100488.28;;;25.34
82400;BMP280;72039;48.812;8.198;2023-08-12T06:42:31;100483.75;;;25.53
82400;BMP280;72039;48.812;8.198;2023-08-12T06:44:58;100490.53;;;25.75
82400;BMP280;72039;48.812;8.198;2023-08-12T06:47:26;100491.72;;;25.92
82400;BMP280;72039;48.812;8.198;2023-08-12T06:49:55;100503.03;;;25.94
82400;BMP280;72039;48.812;8.198;2023-08-12T06:52:22;100489.22;;;26.13
82400;BMP280;72039;48.812;8.198;2023-08-12T06:54:48;100489.78;;;26.22
82400;BMP280;72039;48.812;8.198;2023-08-12T06:57:15;100482.38;;;26.37
82400;BMP280;72039;48.812;8.198;2023-08-12T06:59:40;100486.41;;;26.52
82400;BMP280;72039;48.812;8.198;2023-08-12T07:02:06;100484.03;;;26.63
82400;BMP280;72039;48.812;8.198;2023-08-12T07:04:34;100488.00;;;26.78
82400;BMP280;72039;48.812;8.198;2023-08-12T07:06:59;100488.56;;;26.87
82400;BMP280;72039;48.812;8.198;2023-08-12T07:09:27;100497.81;;;26.85
82400;BMP280;72039;48.812;8.198;2023-08-12T07:11:54;100493.66;;;26.80
82400;BMP280;72039;48.812;8.198;2023-08-12T07:14:20;100494.63;;;27.02
82400;BMP280;72039;48.812;8.198;2023-08-12T07:16:45;100486.16;;;27.00
82400;BMP280;72039;48.812;8.198;2023-08-12T07:19:13;100485.66;;;26.89
82400;BMP280;72039;48.812;8.198;2023-08-12T07:21:40;100480.28;;;26.73
82400;BMP280;72039;48.812;8.198;2023-08-12T07:24:10;100488.25;;;26.66
82400;BMP280;72039;48.812;8.198;2023-08-12T07:26:35;100485.16;;;26.78
82400;BMP280;72039;48.812;8.198;2023-08-12T07:29:03;100489.00;;;27.00
82400;BMP280;72039;48.812;8.198;2023-08-12T07:31:28;100497.06;;;27.22
82400;BMP280;72039;48.812;8.198;2023-08-12T07:33:56;100488.47;;;27.24
82400;BMP280;72039;48.812;8.198;2023-08-12T07:36:21;100485.72;;;27.20
82400;BMP280;72039;48.812;8.198;2023-08-12T07:38:47;100500.06;;;27.16
82400;BMP280;72039;48.812;8.198;2023-08-12T07:41:14;100494.59;;;27.04
82400;BMP280;72039;48.812;8.198;2023-08-12T07:43:42;100492.75;;;26.90
82400;BMP280;72039;48.812;8.198;2023-08-12T07:46:10;100489.06;;;26.98
82400;BMP280;72039;48.812;8.198;2023-08-12T07:48:35;100486.31;;;27.24
82400;BMP280;72039;48.812;8.198;2023-08-12T07:51:01;100491.16;;;27.32
82400;BMP280;72039;48.812;8.198;2023-08-12T07:53:27;100482.97;;;27.47
82400;BMP280;72039;48.812;8.198;2023-08-12T07:55:57;100479.59;;;27.69
82400;BMP280;72039;48.812;8.198;2023-08-12T07:58:24;100465.56;;;27.88
82400;BMP280;72039;48.812;8.198;2023-08-12T08:00:53;100466.91;;;27.91
82400;BMP280;72039;48.812;8.198;2023-08-12T08:03:19;100467.84;;;27.84
82400;BMP280;72039;48.812;8.198;2023-08-12T08:05:44;100473.00;;;27.77
82400;BMP280;72039;48.812;8.198;2023-08-12T08:08:12;100476.81;;;27.65
82400;BMP280;72039;48.812;8.198;2023-08-12T08:10:37;100476.53;;;27.77
82400;BMP280;72039;48.812;8.198;2023-08-12T08:13:03;100475.38;;;27.95
82400;BMP280;72039;48.812;8.198;2023-08-12T08:15:28;100462.16;;;28.11
82400;BMP280;72039;48.812;8.198;2023-08-12T08:17:53;100463.25;;;28.24
82400;BMP280;72039;48.812;8.198;2023-08-12T08:20:21;100464.22;;;28.39
82400;BMP280;72039;48.812;8.198;2023-08-12T08:22:47;100453.84;;;28.52
82400;BMP280;72039;48.812;8.198;2023-08-12T08:25:12;100461.84;;;28.73
82400;BMP280;72039;48.812;8.198;2023-08-12T08:27:38;100462.88;;;28.86
82400;BMP280;72039;48.812;8.198;2023-08-12T08:30:04;100462.59;;;28.96
82400;BMP280;72039;48.812;8.198;2023-08-12T08:32:31;100456.50;;;29.08
82400;BMP280;72039;48.812;8.198;2023-08-12T08:34:57;100455.84;;;29.29
82400;BMP280;72039;48.812;8.198;2023-08-12T08:37:24;100456.69;;;29.48
82400;BMP280;72039;48.812;8.198;2023-08-12T08:39:55;100456.06;;;29.66
82400;BMP280;72039;48.812;8.198;2023-08-12T08:42:21;100457.03;;;29.79
82400;BMP280;72039;48.812;8.198;2023-08-12T08:44:52;100462.84;;;29.77
82400;BMP280;72039;48.812;8.198;2023-08-12T08:47:25;100461.72;;;29.68
82400;BMP280;72039;48.812;8.198;2023-08-12T08:49:51;100459.00;;;29.85
82400;BMP280;72039;48.812;8.198;2023-08-12T08:52:17;100452.03;;;29.80
82400;BMP280;72039;48.812;8.198;2023-08-12T08:54:43;100452.22;;;29.74
82400;BMP280;72039;48.812;8.198;2023-08-12T08:57:09;100446.56;;;29.93
82400;BMP280;72039;48.812;8.198;2023-08-12T08:59:37;100433.88;;;29.88
82400;BMP280;72039;48.812;8.198;2023-08-12T09:02:06;100445.94;;;29.90
82400;BMP280;72039;48.812;8.198;2023-08-12T09:04:36;100465.13;;;29.94
82400;BMP280;72039;48.812;8.198;2023-08-12T09:07:02;100471.13;;;29.86
82400;BMP280;72039;48.812;8.198;2023-08-12T09:09:30;100468.00;;;29.73
82400;BMP280;72039;48.812;8.198;2023-08-12T09:11:56;100490.75;;;29.54
82400;BMP280;72039;48.812;8.198;2023-08-12T09:14:24;100498.66;;;29.31
82400;BMP280;72039;48.812;8.198;2023-08-12T09:16:50;100491.34;;;29.13
82400;BMP280;72039;48.812;8.198;2023-08-12T09:19:18;100493.13;;;29.02
82400;BMP280;72039;48.812;8.198;2023-08-12T09:21:43;100485.69;;;28.88
82400;BMP280;72039;48.812;8.198;2023-08-12T09:24:13;100478.09;;;28.78
82400;BMP280;72039;48.812;8.198;2023-08-12T09:26:42;100475.81;;;28.83
82400;BMP280;72039;48.812;8.198;2023-08-12T09:29:07;100469.38;;;28.84
82400;BMP280;72039;48.812;8.198;2023-08-12T09:31:35;100455.06;;;29.09
82400;BMP280;72039;48.812;8.198;2023-08-12T09:34:06;100458.53;;;29.35
82400;BMP280;72039;48.812;8.198;2023-08-12T09:36:32;100465.91;;;29.71
82400;BMP280;72039;48.812;8.198;2023-08-12T09:38:58;100468.41;;;30.02
82400;BMP280;72039;48.812;8.198;2023-08-12T09:41:25;100466.84;;;30.26
82400;BMP280;72039;48.812;8.198;2023-08-12T09:43:53;100460.41;;;30.47
82400;BMP280;72039;48.812;8.198;2023-08-12T09:46:22;100451.19;;;30.63
82400;BMP280;72039;48.812;8.198;2023-08-12T09:48:52;100450.53;;;30.79
82400;BMP280;72039;48.812;8.198;2023-08-12T09:51:18;100449.69;;;30.83
82400;BMP280;72039;48.812;8.198;2023-08-12T09:53:45;100451.47;;;30.92
82400;BMP280;72039;48.812;8.198;2023-08-12T09:56:13;100449.91;;;30.95
82400;BMP280;72039;48.812;8.198;2023-08-12T09:58:42;100442.84;;;31.11
82400;BMP280;72039;48.812;8.198;2023-08-12T10:01:10;100452.94;;;31.27
82400;BMP280;72039;48.812;8.198;2023-08-12T10:03:39;100444.94;;;31.29
82400;BMP280;72039;48.812;8.198;2023-08-12T10:06:05;100445.13;;;31.42
82400;BMP280;72039;48.812;8.198;2023-08-12T10:08:35;100458.88;;;31.56
82400;BMP280;72039;48.812;8.198;2023-08-12T10:11:02;100457.66;;;31.68
82400;BMP280;72039;48.812;8.198;2023-08-12T10:13:35;100453.00;;;31.77
82400;BMP280;72039;48.812;8.198;2023-08-12T10:16:05;100453.31;;;31.86
82400;BMP280;72039;48.812;8.198;2023-08-12T10:18:36;100453.31;;;32.03
82400;BMP280;72039;48.812;8.198;2023-08-12T10:21:09;100467.53;;;32.22
82400;BMP280;72039;48.812;8.198;2023-08-12T10:23:42;100469.66;;;32.38
82400;BMP280;72039;48.812;8.198;2023-08-12T10:26:11;100475.69;;;32.32
82400;BMP280;72039;48.812;8.198;2023-08-12T10:28:37;100481.59;;;32.28
82400;BMP280;72039;48.812;8.198;2023-08-12T10:31:07;100498.09;;;32.12
82400;BMP280;72039;48.812;8.198;2023-08-12T10:33:37;100520.09;;;31.84
82400;BMP280;72039;48.812;8.198;2023-08-12T10:36:07;100533.88;;;31.46
82400;BMP280;72039;48.812;8.198;2023-08-12T10:38:33;100555.47;;;31.08
82400;BMP280;72039;48.812;8.198;2023-08-12T10:46:22;100529.97;;;30.01
82400;BMP280;72039;48.812;8.198;2023-08-12T10:49:07;100517.06;;;29.59
82400;BMP280;72039;48.812;8.198;2023-08-12T10:54:23;100491.31;;;28.90
82400;BMP280;72039;48.812;8.198;2023-08-12T10:57:05;100477.34;;;28.80
82400;BMP280;72039;48.812;8.198;2023-08-12T11:02:30;100459.16;;;29.14
82400;BMP280;72039;48.812;8.198;2023-08-12T11:05:07;100459.66;;;29.44
82400;BMP280;72039;48.812;8.198;2023-08-12T11:07:56;100462.28;;;29.73
82400;BMP280;72039;48.812;8.198;2023-08-12T11:10:23;100457.69;;;30.03
82400;BMP280;72039;48.812;8.198;2023-08-12T11:15:18;100466.03;;;30.49
82400;BMP280;72039;48.812;8.198;2023-08-12T11:17:45;100470.00;;;30.58
82400;BMP280;72039;48.812;8.198;2023-08-12T11:20:14;100471.03;;;30.48
82400;BMP280;72039;48.812;8.198;2023-08-12T11:22:44;100470.34;;;30.48
82400;BMP280;72039;48.812;8.198;2023-08-12T11:25:11;100479.00;;;30.46
82400;BMP280;72039;48.812;8.198;2023-08-12T11:27:47;100486.69;;;30.51
82400;BMP280;72039;48.812;8.198;2023-08-12T11:30:22;100486.84;;;30.66
82400;BMP280;72039;48.812;8.198;2023-08-12T11:32:52;100488.34;;;30.65
82400;BMP280;72039;48.812;8.198;2023-08-12T11:35:21;100487.94;;;30.56
82400;BMP280;72039;48.812;8.198;2023-08-12T11:37:51;100491.31;;;30.42
82400;BMP280;72039;48.812;8.198;2023-08-12T11:40:19;100493.03;;;30.35
82400;BMP280;72039;48.812;8.198;2023-08-12T11:42:46;100479.16;;;30.41
82400;BMP280;72039;48.812;8.198;2023-08-12T11:47:42;100470.22;;;30.52
82400;BMP280;72039;48.812;8.198;2023-08-12T11:50:12;100467.69;;;30.41
82400;BMP280;72039;48.812;8.198;2023-08-12T11:52:39;100457.53;;;30.47
82400;BMP280;72039;48.812;8.198;2023-08-12T11:55:05;100465.41;;;30.65
82400;BMP280;72039;48.812;8.198;2023-08-12T11:57:39;100465.94;;;30.88
82400;BMP280;72039;48.812;8.198;2023-08-12T12:00:09;100455.16;;;31.08
82400;BMP280;72039;48.812;8.198;2023-08-12T12:02:48;100451.28;;;31.32
82400;BMP280;72039;48.812;8.198;2023-08-12T12:05:14;100452.63;;;31.52
82400;BMP280;72039;48.812;8.198;2023-08-12T12:07:40;100457.16;;;31.64
82400;BMP280;72039;48.812;8.198;2023-08-12T12:10:13;100467.41;;;31.58
82400;BMP280;72039;48.812;8.198;2023-08-12T12:15:37;100454.28;;;31.64
82400;BMP280;72039;48.812;8.198;2023-08-12T12:18:08;100459.75;;;31.70
82400;BMP280;72039;48.812;8.198;2023-08-12T12:20:34;100457.16;;;31.64
82400;BMP280;72039;48.812;8.198;2023-08-12T12:23:05;100454.63;;;31.55
82400;BMP280;72039;48.812;8.198;2023-08-12T12:25:31;100458.19;;;31.39
82400;BMP280;72039;48.812;8.198;2023-08-12T12:27:56;100468.72;;;31.26
82400;BMP280;72039;48.812;8.198;2023-08-12T12:30:22;100465.94;;;31.24
82400;BMP280;72039;48.812;8.198;2023-08-12T12:32:47;100457.13;;;31.30
82400;BMP280;72039;48.812;8.198;2023-08-12T12:35:13;100451.47;;;31.45
82400;BMP280;72039;48.812;8.198;2023-08-12T12:37:38;100449.84;;;31.67
82400;BMP280;72039;48.812;8.198;2023-08-12T12:40:04;100447.03;;;31.81
82400;BMP280;72039;48.812;8.198;2023-08-12T12:42:30;100463.16;;;31.91
82400;BMP280;72039;48.812;8.198;2023-08-12T12:44:56;100464.50;;;31.92
82400;BMP280;72039;48.812;8.198;2023-08-12T12:47:26;100462.19;;;31.97
82400;BMP280;72039;48.812;8.198;2023-08-12T12:49:52;100475.38;;;32.06
82400;BMP280;72039;48.812;8.198;2023-08-12T12:52:20;100469.38;;;32.12
82400;BMP280;72039;48.812;8.198;2023-08-12T12:54:46;100465.72;;;32.14
82400;BMP280;72039;48.812;8.198;2023-08-12T12:57:14;100476.06;;;32.24
82400;BMP280;72039;48.812;8.198;2023-08-12T12:59:39;100476.06;;;32.24
82400;BMP280;72039;48.812;8.198;2023-08-12T13:02:05;100466.56;;;32.27
82400;BMP280;72039;48.812;8.198;2023-08-12T13:04:30;100472.00;;;32.33
82400;BMP280;72039;48.812;8.198;2023-08-12T13:06:56;100472.00;;;32.18
82400;BMP280;72039;48.812;8.198;2023-08-12T13:09:24;100463.75;;;31.94
82400;BMP280;72039;48.812;8.198;2023-08-12T13:11:50;100454.88;;;31.83
82400;BMP280;72039;48.812;8.198;2023-08-12T13:14:18;100458.81;;;31.75
82400;BMP280;72039;48.812;8.198;2023-08-12T13:16:46;100461.84;;;31.71
82400;BMP280;72039;48.812;8.198;2023-08-12T13:19:14;100464.28;;;31.65
82400;BMP280;72039;48.812;8.198;2023-08-12T13:21:39;100470.53;;;31.52
82400;BMP280;72039;48.812;8.198;2023-08-12T13:24:05;100464.34;;;31.63
82400;BMP280;72039;48.812;8.198;2023-08-12T13:26:31;100462.69;;;31.68
82400;BMP280;72039;48.812;8.198;2023-08-12T13:29:00;100456.09;;;31.71
82400;BMP280;72039;48.812;8.198;2023-08-12T13:31:27;100448.28;;;31.70
82400;BMP280;72039;48.812;8.198;2023-08-12T13:33:57;100455.75;;;31.63
82400;BMP280;72039;48.812;8.198;2023-08-12T13:36:23;100460.44;;;31.53
82400;BMP280;72039;48.812;8.198;2023-08-12T13:38:54;100448.06;;;31.40
82400;BMP280;72039;48.812;8.198;2023-08-12T13:41:20;100438.53;;;31.29
82400;BMP280;72039;48.812;8.198;2023-08-12T13:43:47;100438.31;;;31.16
82400;BMP280;72039;48.812;8.198;2023-08-12T13:46:16;100433.16;;;31.02
82400;BMP280;72039;48.812;8.198;2023-08-12T13:48:43;100435.66;;;30.93
82400;BMP280;72039;48.812;8.198;2023-08-12T13:51:09;100428.84;;;30.84
82400;BMP280;72039;48.812;8.198;2023-08-12T13:53:38;100436.06;;;30.83
82400;BMP280;72039;48.812;8.198;2023-08-12T13:56:03;100433.34;;;30.79
82400;BMP280;72039;48.812;8.198;2023-08-12T13:58:29;100437.69;;;30.59
82400;BMP280;72039;48.812;8.198;2023-08-12T14:00:57;100434.97;;;30.36
82400;BMP280;72039;48.812;8.198;2023-08-12T14:03:22;100445.78;;;30.15
82400;BMP280;72039;48.812;8.198;2023-08-12T14:05:48;100443.06;;;29.90
82400;BMP280;72039;48.812;8.198;2023-08-12T14:08:14;100446.63;;;29.70
82400;BMP280;72039;48.812;8.198;2023-08-12T14:10:40;100450.66;;;29.56
82400;BMP280;72039;48.812;8.198;2023-08-12T14:13:08;100445.38;;;29.44
82400;BMP280;72039;48.812;8.198;2023-08-12T14:15:38;100423.00;;;29.28
82400;BMP280;72039;48.812;8.198;2023-08-12T14:18:04;100435.41;;;29.20
82400;BMP280;72039;48.812;8.198;2023-08-12T14:20:32;100426.34;;;29.13
82400;BMP280;72039;48.812;8.198;2023-08-12T14:22:58;100408.00;;;29.06
82400;BMP280;72039;48.812;8.198;2023-08-12T14:25:24;100406.97;;;28.93